Time;durP1;ratioP1;P1;durP2;ratioP2;P2;SDS_P1;SDS_P2;PMS_P1;PMS_P2;Temp;Humidity;BMP_temperature;BMP_pressure;BME280_temperature;BME280_humidity;BME280_pressure;Samples;Min_cycle;Max_cycle;Signal;HPM_P1;HPM_P2
2023/01/13 00:01:27;;;;;;;3.53;0.68;;;10.10;99.90;;;;;;5007561;28;20026;-73
2023/01/13 00:03:56;;;;;;;1.73;0.40;;;10.10;99.90;;;;;;4990621;28;20471;-73
2023/01/13 00:06:28;;;;;;;0.88;0.30;;;10.10;99.90;;;;;;5007902;28;20076;-74
2023/01/13 00:08:54;;;;;;;0.98;0.50;;;10.10;99.90;;;;;;5006056;28;20025;-74
2023/01/13 00:11:26;;;;;;;0.65;0.32;;;10.10;99.90;;;;;;4990947;28;20130;-73
2023/01/13 00:13:52;;;;;;;0.95;0.40;;;10.10;99.90;;;;;;4988680;28;20109;-72
2023/01/13 00:16:19;;;;;;;2.75;0.60;;;10.10;99.90;;;;;;5007345;28;20029;-74
2023/01/13 00:18:46;;;;;;;1.45;0.40;;;10.10;99.90;;;;;;4990567;28;20034;-73
2023/01/13 00:21:24;;;;;;;4.13;1.00;;;10.10;99.90;;;;;;5010484;28;20065;-73
2023/01/13 00:23:54;;;;;;;2.88;0.40;;;10.10;99.90;;;;;;5010348;28;20026;-73
2023/01/13 00:26:22;;;;;;;1.10;0.47;;;10.10;99.90;;;;;;4990333;28;20029;-73
2023/01/13 00:28:48;;;;;;;1.55;0.40;;;10.10;99.90;;;;;;4997867;28;20052;-73
2023/01/13 00:31:17;;;;;;;1.50;0.30;;;10.10;99.90;;;;;;5009589;28;20386;-74
2023/01/13 00:33:44;;;;;;;3.63;1.02;;;10.10;99.90;;;;;;4991356;28;20041;-74
2023/01/13 00:36:12;;;;;;;2.42;0.30;;;10.10;99.90;;;;;;4993302;28;20022;-73
2023/01/13 00:38:38;;;;;;;1.00;0.30;;;10.10;99.90;;;;;;5009396;28;20049;-74
2023/01/13 00:41:15;;;;;;;0.90;0.40;;;10.10;99.90;;;;;;5007325;28;20045;-74
2023/01/13 00:43:41;;;;;;;2.17;0.38;;;10.10;99.90;;;;;;4995529;28;20029;-74
2023/01/13 00:46:15;;;;;;;1.38;0.30;;;10.10;99.90;;;;;;5010627;28;20375;-73
2023/01/13 00:48:44;;;;;;;0.77;0.38;;;10.10;99.90;;;;;;5010137;28;20041;-73
2023/01/13 00:51:13;;;;;;;1.60;0.40;;;10.20;99.90;;;;;;5009389;28;20116;-74
2023/01/13 00:53:54;;;;;;;2.08;0.30;;;10.20;99.90;;;;;;5008242;28;20053;-74
2023/01/13 00:56:29;;;;;;;2.17;0.40;;;10.20;99.90;;;;;;4994637;28;20034;-74
2023/01/13 00:58:58;;;;;;;3.30;0.25;;;10.20;99.90;;;;;;4994684;28;20065;-74
2023/01/13 01:01:27;;;;;;;0.60;0.30;;;10.20;99.90;;;;;;5008775;28;20058;-74
2023/01/13 01:03:55;;;;;;;1.02;0.30;;;10.20;99.90;;;;;;4994914;28;20029;-74
2023/01/13 01:06:25;;;;;;;2.35;0.43;;;10.20;99.90;;;;;;5008365;28;20046;-73
2023/01/13 01:08:53;;;;;;;1.30;0.50;;;10.20;99.90;;;;;;5006219;28;20034;-73
2023/01/13 01:11:29;;;;;;;1.58;0.20;;;10.20;99.90;;;;;;5008946;28;20034;-74
2023/01/13 01:13:58;;;;;;;2.65;0.50;;;10.20;99.90;;;;;;4997658;28;20061;-73
2023/01/13 01:16:26;;;;;;;3.20;0.40;;;10.30;99.90;;;;;;5006181;28;20239;-74
2023/01/13 01:18:52;;;;;;;1.27;0.30;;;10.30;99.90;;;;;;5010930;28;20030;-74
2023/01/13 01:21:19;;;;;;;2.55;0.40;;;10.30;99.90;;;;;;4990592;28;20596;-74
2023/01/13 01:23:45;;;;;;;1.48;0.40;;;10.30;99.90;;;;;;4995667;28;20037;-74
2023/01/13 01:26:16;;;;;;;1.65;0.40;;;10.20;99.90;;;;;;5006615;28;20076;-74
2023/01/13 01:28:47;;;;;;;1.77;0.60;;;10.30;99.90;;;;;;4995326;28;20068;-74
2023/01/13 01:31:25;;;;;;;4.18;0.43;;;10.30;99.90;;;;;;5005958;28;20084;-74
2023/01/13 01:33:51;;;;;;;1.42;0.45;;;10.30;99.90;;;;;;5008294;28;20030;-74
2023/01/13 01:36:19;;;;;;;1.95;0.40;;;10.20;99.90;;;;;;5009900;28;20044;-74
2023/01/13 01:38:46;;;;;;;5.35;0.50;;;10.30;99.90;;;;;;4993390;28;20022;-73
2023/01/13 01:41:22;;;;;;;1.83;0.40;;;10.30;99.90;;;;;;4993168;28;20124;-74
2023/01/13 01:43:58;;;;;;;1.20;0.32;;;10.20;99.90;;;;;;5009648;28;20033;-74
2023/01/13 01:46:32;;;;;;;2.72;0.50;;;10.20;99.90;;;;;;5009475;28;20486;-74
2023/01/13 01:49:22;;;;;;;3.90;0.50;;;10.20;99.90;;;;;;5007048;28;20399;-74
2023/01/13 01:51:52;;;;;;;3.05;0.35;;;10.20;99.90;;;;;;5007395;28;20034;-73
2023/01/13 01:54:46;;;;;;;2.63;0.50;;;10.20;99.90;;;;;;5004807;28;20033;-74
2023/01/13 01:57:18;;;;;;;0.50;0.40;;;10.20;99.90;;;;;;4989754;28;20033;-73
2023/01/13 01:59:45;;;;;;;1.00;0.30;;;10.20;99.90;;;;;;4989769;28;20037;-74
2023/01/13 02:02:10;;;;;;;4.90;0.70;;;10.20;99.90;;;;;;4992671;28;20536;-74
2023/01/13 02:04:49;;;;;;;2.05;0.40;;;10.20;99.90;;;;;;5008220;28;20026;-74
2023/01/13 02:07:22;;;;;;;1.38;0.30;;;10.20;99.90;;;;;;5002812;28;20113;-74
2023/01/13 02:09:48;;;;;;;1.58;0.60;;;10.20;99.90;;;;;;4993915;28;20026;-73
2023/01/13 02:12:33;;;;;;;1.27;0.57;;;10.20;99.90;;;;;;5004733;28;20526;-73
2023/01/13 02:14:58;;;;;;;1.15;0.32;;;10.20;99.90;;;;;;5001192;28;20990;-74
2023/01/13 02:17:43;;;;;;;2.92;0.57;;;10.20;99.90;;;;;;5009032;28;20022;-74
2023/01/13 02:20:46;;;;;;;2.25;0.47;;;10.20;99.90;;;;;;5002173;28;20098;-74
2023/01/13 02:26:42;;;;;;;0.55;0.17;;;10.20;99.90;;;;;;5011527;28;20171;-74
2023/01/13 02:32:46;;;;;;;2.50;0.35;;;10.20;99.90;;;;;;5012412;28;20041;-74
2023/01/13 02:35:43;;;;;;;3.65;0.63;;;10.20;99.90;;;;;;4991999;28;20478;-74
2023/01/13 02:38:12;;;;;;;0.57;0.30;;;10.30;99.90;;;;;;5007627;28;20479;-74
2023/01/13 02:40:58;;;;;;;0.52;0.30;;;10.20;99.90;;;;;;5007140;28;20037;-74
2023/01/13 02:46:31;;;;;;;0.77;0.35;;;10.20;99.90;;;;;;5006622;28;20406;-72
2023/01/13 02:49:01;;;;;;;2.08;0.40;;;10.30;99.90;;;;;;4990512;28;20212;-74
2023/01/13 02:51:29;;;;;;;1.98;0.38;;;10.30;99.90;;;;;;5001494;28;20037;-74
2023/01/13 02:54:07;;;;;;;1.05;0.40;;;10.30;99.90;;;;;;5010005;28;20053;-74
2023/01/13 02:56:38;;;;;;;0.63;0.35;;;10.30;99.90;;;;;;5003721;28;20030;-74
2023/01/13 02:59:09;;;;;;;1.05;0.40;;;10.20;99.90;;;;;;5009015;28;20490;-74
2023/01/13 03:01:37;;;;;;;2.58;0.50;;;10.20;99.90;;;;;;5006922;28;20105;-74
2023/01/13 03:04:33;;;;;;;0.82;0.40;;;10.20;99.90;;;;;;4994352;28;20080;-73
2023/01/13 03:07:16;;;;;;;0.47;0.30;;;10.20;99.90;;;;;;5005083;28;20084;-74
2023/01/13 03:10:16;;;;;;;1.33;0.28;;;10.20;99.90;;;;;;5009731;28;20498;-74
2023/01/13 03:13:18;;;;;;;1.75;0.40;;;10.20;99.90;;;;;;4982878;28;20626;-74
2023/01/13 03:16:21;;;;;;;0.30;0.20;;;10.20;99.90;;;;;;4991951;28;20041;-74
2023/01/13 03:19:11;;;;;;;2.33;0.30;;;10.20;99.90;;;;;;5009862;28;20029;-73
2023/01/13 03:21:40;;;;;;;1.70;0.40;;;10.20;99.90;;;;;;5011771;28;20458;-74
2023/01/13 03:24:39;;;;;;;2.08;0.32;;;10.20;99.90;;;;;;4994537;28;20034;-73
2023/01/13 03:27:27;;;;;;;1.48;0.40;;;10.20;99.90;;;;;;5009545;28;20052;-73
2023/01/13 03:30:21;;;;;;;2.22;0.43;;;10.20;99.90;;;;;;5008438;28;20053;-73
2023/01/13 03:33:06;;;;;;;1.65;0.30;;;10.10;99.90;;;;;;4981630;28;20041;-73
2023/01/13 03:35:42;;;;;;;1.67;0.30;;;10.20;99.90;;;;;;5007947;28;20034;-73
2023/01/13 03:38:13;;;;;;;0.30;0.15;;;10.10;99.90;;;;;;5004009;28;20026;-73
2023/01/13 03:40:57;;;;;;;2.85;0.55;;;10.20;99.90;;;;;;5007705;28;20113;-73
2023/01/13 03:46:44;;;;;;;0.90;0.47;;;10.10;99.90;;;;;;5003356;28;20713;-73
2023/01/13 03:49:18;;;;;;;2.47;0.32;;;10.10;99.90;;;;;;5008972;28;20018;-74
2023/01/13 03:51:52;;;;;;;0.40;0.30;;;10.10;99.90;;;;;;4993381;28;20030;-73
2023/01/13 03:54:19;;;;;;;1.45;0.40;;;10.20;99.90;;;;;;5004793;28;20030;-73
2023/01/13 03:56:50;;;;;;;2.30;0.20;;;10.20;99.90;;;;;;5007471;28;20081;-74
2023/01/13 03:59:26;;;;;;;0.63;0.25;;;10.10;99.90;;;;;;5010734;28;20025;-74
2023/01/13 04:02:22;;;;;;;0.55;0.20;;;10.20;99.90;;;;;;5008062;28;20022;-74
2023/01/13 04:05:01;;;;;;;1.30;0.30;;;10.10;99.90;;;;;;4986265;28;20038;-74
2023/01/13 04:07:55;;;;;;;1.23;0.22;;;10.20;99.90;;;;;;5006458;28;20026;-74
2023/01/13 04:10:37;;;;;;;3.35;0.40;;;10.20;99.90;;;;;;5003973;28;20030;-74
2023/01/13 04:13:25;;;;;;;2.05;0.30;;;10.20;99.90;;;;;;5003032;28;20636;-73
2023/01/13 04:15:50;;;;;;;0.93;0.20;;;10.20;99.90;;;;;;5003867;28;20021;-73
2023/01/13 04:18:35;;;;;;;1.23;0.30;;;10.20;99.90;;;;;;5003683;28;20040;-75
2023/01/13 04:21:05;;;;;;;2.05;0.50;;;10.20;99.90;;;;;;4991568;28;20497;-73
2023/01/13 04:23:34;;;;;;;0.60;0.30;;;10.20;99.90;;;;;;5004802;28;20034;-73
2023/01/13 04:25:59;;;;;;;1.73;0.30;;;10.20;99.90;;;;;;4988360;28;20514;-72
2023/01/13 04:28:25;;;;;;;2.63;0.30;;;10.20;99.90;;;;;;5010092;28;20115;-73
2023/01/13 04:30:51;;;;;;;0.60;0.20;;;10.20;99.90;;;;;;5005709;28;20021;-72
2023/01/13 04:33:18;;;;;;;2.05;0.40;;;10.30;99.90;;;;;;5010573;28;20065;-74
2023/01/13 04:35:51;;;;;;;0.65;0.30;;;10.20;99.90;;;;;;4995335;28;20040;-74
2023/01/13 04:38:18;;;;;;;1.58;0.32;;;10.20;99.90;;;;;;5007768;28;20069;-74
2023/01/13 04:40:44;;;;;;;2.70;0.32;;;10.30;99.90;;;;;;5005439;28;20041;-74
2023/01/13 04:43:11;;;;;;;1.30;0.20;;;10.30;99.90;;;;;;5008712;28;20474;-75
2023/01/13 04:45:39;;;;;;;0.20;0.20;;;10.30;99.90;;;;;;5006235;28;20028;-75
2023/01/13 04:48:05;;;;;;;2.38;0.30;;;10.30;99.90;;;;;;4984249;28;20026;-73
2023/01/13 04:50:31;;;;;;;0.15;0.10;;;10.30;99.90;;;;;;5007316;28;20483;-73
2023/01/13 04:52:56;;;;;;;0.80;0.20;;;10.30;99.90;;;;;;5006723;28;20029;-72
2023/01/13 04:55:25;;;;;;;0.13;0.10;;;10.30;99.90;;;;;;5008003;28;20030;-73
2023/01/13 04:57:50;;;;;;;0.95;0.30;;;10.30;99.90;;;;;;5009967;28;20409;-72
2023/01/13 05:00:18;;;;;;;1.85;0.20;;;10.30;99.90;;;;;;5001566;28;20036;-73
2023/01/13 05:02:50;;;;;;;0.80;0.20;;;10.30;99.90;;;;;;5007103;28;20037;-73
2023/01/13 05:05:16;;;;;;;2.15;0.40;;;10.30;99.90;;;;;;4994018;28;20084;-74
2023/01/13 05:07:42;;;;;;;1.15;0.70;;;10.30;99.90;;;;;;4991565;28;20101;-75
2023/01/13 05:10:08;;;;;;;0.65;0.35;;;10.30;99.90;;;;;;5012265;28;20467;-72
2023/01/13 05:18:15;;;;;;;1.20;0.30;;;10.30;99.90;;;;;;5008086;28;20045;-75
2023/01/13 05:20:40;;;;;;;1.65;0.38;;;10.30;99.90;;;;;;5012778;28;20040;-74
2023/01/13 05:26:00;;;;;;;1.42;0.30;;;10.30;99.90;;;;;;5011509;28;20028;-75
2023/01/13 05:28:30;;;;;;;0.40;0.20;;;10.30;99.90;;;;;;5010339;28;20034;-75
2023/01/13 05:31:02;;;;;;;0.10;0.10;;;10.30;99.90;;;;;;4994535;28;20026;-73
2023/01/13 05:33:28;;;;;;;0.32;0.25;;;10.30;99.90;;;;;;5009308;28;20109;-74
2023/01/13 05:35:53;;;;;;;0.40;0.20;;;10.30;99.90;;;;;;4994741;28;20038;-74
2023/01/13 05:38:19;;;;;;;0.57;0.20;;;10.40;99.90;;;;;;4997311;28;20112;-74
2023/01/13 05:43:33;;;;;;;0.50;0.30;;;10.90;99.90;;;;;;5008873;28;20028;-74
2023/01/13 05:46:06;;;;;;;1.25;0.50;;;11.00;99.90;;;;;;4996614;28;20113;-75
2023/01/13 05:48:41;;;;;;;2.50;0.50;;;11.10;99.90;;;;;;5013721;28;20024;-75
2023/01/13 05:51:11;;;;;;;0.88;0.30;;;10.90;99.90;;;;;;5012213;28;20426;-74
2023/01/13 05:53:39;;;;;;;1.70;0.30;;;10.80;99.90;;;;;;5012841;28;20116;-72
2023/01/13 05:56:06;;;;;;;0.10;0.10;;;10.70;99.90;;;;;;4995817;28;20125;-73
2023/01/13 05:58:35;;;;;;;1.52;0.30;;;10.60;99.90;;;;;;5012581;28;20080;-73
2023/01/13 06:01:03;;;;;;;0.43;0.28;;;10.60;99.90;;;;;;5007776;28;20097;-73
2023/01/13 06:03:29;;;;;;;0.20;0.15;;;10.60;99.90;;;;;;5005249;28;20038;-75
2023/01/13 06:05:58;;;;;;;0.25;0.17;;;10.50;99.90;;;;;;5011884;28;20064;-74
2023/01/13 06:08:24;;;;;;;0.70;0.20;;;10.50;99.90;;;;;;5010427;28;20730;-74
2023/01/13 06:10:50;;;;;;;1.13;0.38;;;10.40;99.90;;;;;;5008408;28;20065;-75
2023/01/13 06:13:15;;;;;;;0.85;0.30;;;10.40;99.90;;;;;;5010556;28;20429;-74
2023/01/13 06:15:41;;;;;;;2.08;0.43;;;10.40;99.90;;;;;;4992703;28;20111;-74
2023/01/13 06:18:07;;;;;;;0.40;0.20;;;10.40;99.90;;;;;;5007183;28;20084;-74
2023/01/13 06:20:32;;;;;;;1.92;1.00;;;10.40;99.90;;;;;;5007188;28;20518;-74
2023/01/13 06:22:59;;;;;;;0.65;0.40;;;10.30;99.90;;;;;;5006053;28;20026;-76
2023/01/13 06:25:46;;;;;;;1.48;0.60;;;10.30;99.90;;;;;;5005072;28;20106;-75
2023/01/13 06:28:12;;;;;;;0.20;0.20;;;10.40;99.90;;;;;;5013303;28;20133;-76
2023/01/13 06:30:48;;;;;;;0.30;0.15;;;10.30;99.90;;;;;;5021127;23;20058;-74
2023/01/13 06:33:17;;;;;;;1.45;0.20;;;10.40;99.90;;;;;;5013235;28;20030;-75
2023/01/13 06:35:49;;;;;;;0.65;0.30;;;10.40;99.90;;;;;;4994903;28;20489;-72
2023/01/13 06:38:17;;;;;;;0.52;0.20;;;10.40;99.90;;;;;;4990499;28;20573;-74
2023/01/13 06:40:43;;;;;;;0.52;0.10;;;10.40;99.90;;;;;;5012778;28;20029;-73
2023/01/13 06:43:14;;;;;;;0.13;0.10;;;10.40;99.90;;;;;;5001257;28;20399;-76
2023/01/13 06:46:06;;;;;;;0.10;0.10;;;10.30;99.90;;;;;;5008592;28;20026;-73
2023/01/13 06:48:34;;;;;;;0.52;0.20;;;10.40;99.90;;;;;;5014120;28;20101;-74
2023/01/13 06:51:00;;;;;;;0.30;0.13;;;10.40;99.90;;;;;;4996095;28;20395;-73
2023/01/13 06:53:25;;;;;;;0.20;0.10;;;10.40;99.90;;;;;;5015671;28;20030;-74
2023/01/13 06:55:51;;;;;;;0.17;0.10;;;10.40;99.90;;;;;;5014410;28;20371;-74
2023/01/13 06:58:17;;;;;;;0.35;0.10;;;10.40;99.90;;;;;;4994992;28;20173;-73
2023/01/13 07:00:43;;;;;;;0.20;0.10;;;10.40;99.90;;;;;;5011675;28;20045;-74
2023/01/13 07:03:13;;;;;;;0.20;0.10;;;10.40;99.90;;;;;;5010387;28;20033;-74
2023/01/13 07:05:42;;;;;;;0.43;0.20;;;10.40;99.90;;;;;;5015284;28;20180;-72
2023/01/13 07:08:09;;;;;;;1.90;0.22;;;10.40;99.90;;;;;;4997560;28;20057;-72
2023/01/13 07:10:35;;;;;;;2.50;0.30;;;10.40;99.90;;;;;;4997489;28;20033;-73
2023/01/13 07:15:53;;;;;;;2.08;0.63;;;10.40;99.90;;;;;;5010914;28;20509;-75
2023/01/13 07:18:19;;;;;;;1.27;0.30;;;10.40;99.90;;;;;;4992337;28;20025;-73
2023/01/13 07:20:51;;;;;;;0.45;0.20;;;10.40;99.90;;;;;;4988247;28;20065;-73
2023/01/13 07:23:17;;;;;;;0.30;0.20;;;10.30;99.90;;;;;;5015075;28;20084;-74
2023/01/13 07:25:42;;;;;;;2.58;0.47;;;10.40;99.90;;;;;;5014338;28;20018;-73
2023/01/13 07:28:08;;;;;;;0.45;0.22;;;10.30;99.90;;;;;;4998089;28;20049;-73
2023/01/13 07:30:33;;;;;;;0.38;0.20;;;10.30;99.90;;;;;;4998779;28;20412;-73
2023/01/13 07:32:59;;;;;;;0.75;0.30;;;10.30;99.90;;;;;;5013768;28;20044;-73
2023/01/13 07:35:25;;;;;;;0.15;0.10;;;10.40;99.90;;;;;;5010721;28;20030;-73
2023/01/13 07:37:50;;;;;;;0.22;0.10;;;10.40;99.90;;;;;;5012780;28;20510;-74
2023/01/13 07:40:16;;;;;;;0.75;0.30;;;10.30;99.90;;;;;;5006283;28;20022;-74
2023/01/13 07:45:26;;;;;;;;;;;10.30;99.90;;;;;;5007300;28;20025;-74
2023/01/13 07:47:52;;;;;;;0.50;0.30;;;10.30;99.90;;;;;;5008600;28;20354;-73
2023/01/13 07:50:20;;;;;;;0.10;0.10;;;10.30;99.90;;;;;;5004172;28;20026;-74
2023/01/13 07:52:46;;;;;;;0.20;0.10;;;10.40;99.90;;;;;;5012870;28;20064;-72
2023/01/13 07:55:11;;;;;;;0.20;0.20;;;10.30;99.90;;;;;;4990743;28;20537;-73
2023/01/13 07:57:37;;;;;;;3.50;0.32;;;10.30;99.90;;;;;;4993174;28;20030;-73
2023/01/13 08:00:04;;;;;;;0.68;0.20;;;10.40;99.90;;;;;;5008919;28;20062;-73
2023/01/13 08:02:29;;;;;;;0.20;0.10;;;10.40;99.90;;;;;;5012810;28;20080;-73
2023/01/13 08:04:55;;;;;;;1.48;0.20;;;10.40;99.90;;;;;;5013540;28;20410;-74
2023/01/13 08:07:26;;;;;;;0.35;0.20;;;10.40;99.90;;;;;;4994190;28;20080;-74
2023/01/13 08:09:52;;;;;;;0.50;0.20;;;10.40;99.90;;;;;;4999592;28;20084;-74
2023/01/13 08:15:05;;;;;;;0.28;0.20;;;10.40;99.90;;;;;;5011649;28;20044;-74
2023/01/13 08:17:31;;;;;;;0.98;0.20;;;10.50;99.90;;;;;;5008268;28;20036;-74
2023/01/13 08:19:56;;;;;;;0.10;0.10;;;10.50;99.90;;;;;;5012095;28;20551;-74
2023/01/13 08:22:22;;;;;;;0.85;0.32;;;10.50;99.90;;;;;;5007602;28;20037;-74
2023/01/13 08:24:48;;;;;;;1.00;0.40;;;10.50;99.90;;;;;;4997366;28;20362;-74
2023/01/13 08:27:14;;;;;;;1.27;0.20;;;10.50;99.90;;;;;;5010113;28;20450;-74
2023/01/13 08:29:39;;;;;;;0.75;0.40;;;10.50;99.90;;;;;;4991914;28;20038;-74
2023/01/13 08:32:05;;;;;;;0.30;0.10;;;10.60;99.90;;;;;;4995388;28;20077;-73
2023/01/13 08:34:31;;;;;;;0.85;0.43;;;10.60;99.90;;;;;;5008257;28;20026;-74
2023/01/13 08:36:56;;;;;;;0.50;0.10;;;10.60;99.90;;;;;;5013420;28;20041;-74
2023/01/13 08:39:24;;;;;;;0.20;0.20;;;10.60;99.90;;;;;;5014007;28;20038;-73
2023/01/13 08:41:55;;;;;;;0.70;0.30;;;10.60;99.90;;;;;;5013671;28;20018;-73
2023/01/13 08:44:22;;;;;;;2.17;0.30;;;10.60;99.90;;;;;;5011951;28;20525;-74
2023/01/13 08:46:48;;;;;;;0.57;0.20;;;10.60;99.90;;;;;;5013219;28;20054;-74
2023/01/13 08:49:15;;;;;;;1.40;0.45;;;10.70;99.90;;;;;;5012467;28;20022;-74
2023/01/13 08:51:47;;;;;;;0.88;0.38;;;10.70;99.90;;;;;;4999412;28;20022;-74
2023/01/13 08:54:13;;;;;;;2.33;0.20;;;10.70;99.90;;;;;;4998886;28;20080;-74
2023/01/13 08:56:45;;;;;;;1.65;0.40;;;10.70;99.90;;;;;;5013810;28;20025;-77
2023/01/13 08:59:12;;;;;;;0.10;0.10;;;10.60;99.90;;;;;;5014171;28;20022;-77
2023/01/13 09:01:39;;;;;;;0.10;0.10;;;10.60;99.90;;;;;;5016529;28;20018;-76
2023/01/13 09:04:07;;;;;;;0.35;0.20;;;10.60;99.90;;;;;;5018235;28;20104;-76
2023/01/13 09:06:33;;;;;;;0.25;0.20;;;10.60;99.90;;;;;;4994011;28;20025;-77
2023/01/13 09:08:59;;;;;;;0.43;0.20;;;10.60;99.90;;;;;;5016609;28;20036;-74
2023/01/13 09:14:19;;;;;;;0.73;0.20;;;10.50;99.90;;;;;;5015384;28;20069;-73
2023/01/13 09:16:45;;;;;;;0.73;0.30;;;10.50;99.90;;;;;;5012971;28;20088;-76
2023/01/13 09:19:11;;;;;;;1.95;0.22;;;10.50;99.90;;;;;;5016572;28;20037;-75
2023/01/13 09:21:36;;;;;;;0.20;0.20;;;10.50;99.90;;;;;;5018319;28;20105;-74
2023/01/13 09:24:02;;;;;;;0.65;0.13;;;10.50;99.90;;;;;;5000135;28;20026;-76
2023/01/13 09:26:28;;;;;;;0.10;0.10;;;10.50;99.90;;;;;;5016222;28;20029;-75
2023/01/13 09:28:54;;;;;;;0.68;0.10;;;10.50;99.90;;;;;;5015003;28;20410;-74
2023/01/13 09:31:19;;;;;;;1.40;0.10;;;10.50;99.90;;;;;;5016979;28;20026;-75
2023/01/13 09:36:29;;;;;;;8.00;0.30;;;10.50;99.90;;;;;;5014034;28;20053;-76
2023/01/13 09:38:55;;;;;;;0.30;0.20;;;10.50;99.90;;;;;;5011996;28;20034;-77
2023/01/13 09:44:16;;;;;;;0.73;0.20;;;10.60;99.90;;;;;;5016827;28;20065;-76
2023/01/13 09:46:50;;;;;;;0.75;0.20;;;10.60;99.90;;;;;;5010191;28;20501;-76
2023/01/13 09:49:42;;;;;;;0.20;0.20;;;10.60;99.90;;;;;;5005433;28;20023;-74
2023/01/13 09:52:21;;;;;;;0.38;0.10;;;10.60;99.90;;;;;;4991141;28;20415;-74
2023/01/13 09:55:10;;;;;;;0.28;0.20;;;10.50;99.90;;;;;;5006320;28;20034;-75
2023/01/13 09:57:38;;;;;;;0.28;0.20;;;10.50;99.90;;;;;;5003340;28;20112;-74
2023/01/13 10:00:16;;;;;;;0.75;0.30;;;10.50;99.90;;;;;;5010986;28;20180;-76
2023/01/13 10:02:54;;;;;;;0.20;0.20;;;10.60;99.90;;;;;;5010669;28;20041;-76
2023/01/13 10:05:40;;;;;;;1.15;0.30;;;10.60;99.90;;;;;;4997152;28;20026;-76
2023/01/13 10:08:15;;;;;;;0.90;0.30;;;10.60;99.90;;;;;;5017983;28;20032;-78
2023/01/13 10:10:57;;;;;;;1.15;0.30;;;10.60;99.90;;;;;;5014174;28;20083;-76
2023/01/13 10:13:26;;;;;;;1.02;0.30;;;10.70;99.90;;;;;;5015572;28;20072;-76
2023/01/13 10:16:10;;;;;;;0.82;0.20;;;10.70;99.90;;;;;;4999754;28;20044;-76
2023/01/13 10:18:42;;;;;;;1.05;0.20;;;10.70;99.90;;;;;;5014887;28;20403;-77
2023/01/13 10:21:20;;;;;;;0.60;0.30;;;10.70;99.90;;;;;;5004984;28;20153;-76
2023/01/13 10:24:04;;;;;;;0.57;0.20;;;10.70;99.90;;;;;;5005173;28;20038;-77
2023/01/13 10:26:52;;;;;;;1.38;0.68;;;10.70;99.90;;;;;;5010321;28;20045;-75
2023/01/13 10:29:26;;;;;;;2.13;0.50;;;10.70;99.90;;;;;;5007892;28;20069;-72
2023/01/13 10:31:53;;;;;;;0.85;0.43;;;10.60;99.90;;;;;;4999181;28;20076;-73
2023/01/13 10:34:22;;;;;;;1.38;0.40;;;10.60;99.90;;;;;;5010065;28;20049;-77
2023/01/13 10:37:01;;;;;;;0.45;0.28;;;10.60;99.90;;;;;;5009948;28;20023;-76
2023/01/13 10:39:37;;;;;;;1.60;0.60;;;10.60;99.90;;;;;;4996515;28;20588;-76
2023/01/13 10:42:04;;;;;;;4.10;2.08;;;10.50;99.90;;;;;;5012042;28;20022;-76
2023/01/13 10:44:30;;;;;;;4.72;1.70;;;10.40;99.90;;;;;;5011554;28;20089;-76
2023/01/13 10:46:58;;;;;;;1.48;0.68;;;10.40;99.90;;;;;;5008935;28;20435;-76
2023/01/13 10:49:41;;;;;;;3.50;1.67;;;10.30;99.90;;;;;;5013935;28;20041;-73
2023/01/13 10:52:53;;;;;;;6.00;1.65;;;10.20;99.90;;;;;;5011986;28;20087;-75
2023/01/13 10:55:29;;;;;;;9.20;3.92;;;10.10;99.90;;;;;;4972150;28;20038;-76
2023/01/13 10:57:55;;;;;;;6.45;2.70;;;10.10;99.90;;;;;;5008213;28;20030;-75
2023/01/13 11:00:32;;;;;;;6.10;3.28;;;10.20;99.90;;;;;;4994430;28;20487;-73
2023/01/13 11:03:26;;;;;;;2.15;0.80;;;10.20;99.90;;;;;;4994177;28;20026;-74
2023/01/13 11:05:58;;;;;;;3.38;1.17;;;10.20;99.90;;;;;;4987019;28;20042;-75
2023/01/13 11:08:30;;;;;;;2.50;0.75;;;10.20;99.90;;;;;;5003299;28;20025;-74
2023/01/13 11:10:58;;;;;;;5.53;1.00;;;10.30;99.90;;;;;;5006654;28;20022;-76
2023/01/13 11:13:35;;;;;;;6.28;1.17;;;10.30;99.90;;;;;;4989783;28;20038;-72
2023/01/13 11:16:14;;;;;;;3.53;1.48;;;10.30;99.90;;;;;;5008797;28;20029;-74
2023/01/13 11:19:10;;;;;;;2.45;0.95;;;10.40;99.90;;;;;;5007013;28;20577;-76
2023/01/13 11:21:36;;;;;;;1.42;0.68;;;10.40;99.90;;;;;;5011109;28;20034;-77
2023/01/13 11:24:36;;;;;;;1.60;1.00;;;10.30;99.90;;;;;;4991661;28;20030;-76
2023/01/13 11:27:16;;;;;;;3.38;1.98;;;9.90;99.90;;;;;;4997728;28;20371;-76
2023/01/13 11:30:08;;;;;;;1.67;0.30;;;9.40;99.90;;;;;;4993349;28;20066;-75
2023/01/13 11:32:42;;;;;;;3.40;1.60;;;9.10;99.90;;;;;;5007000;28;20034;-75
2023/01/13 11:35:20;;;;;;;4.40;2.13;;;8.70;99.90;;;;;;5009524;28;20037;-75
2023/01/13 11:38:01;;;;;;;2.20;0.93;;;8.40;99.90;;;;;;5007497;28;20029;-75
2023/01/13 11:40:52;;;;;;;5.63;2.38;;;8.00;99.90;;;;;;5008005;28;20040;-76
2023/01/13 11:43:33;;;;;;;5.50;3.83;;;7.90;99.90;;;;;;4990139;28;20133;-75
2023/01/13 11:46:00;;;;;;;6.85;4.40;;;7.80;99.90;;;;;;5005725;28;20116;-74
2023/01/13 11:48:30;;;;;;;2.25;1.75;;;7.60;99.90;;;;;;5006465;28;20486;-73
2023/01/13 11:51:20;;;;;;;2.00;1.67;;;7.50;99.90;;;;;;4988628;28;20064;-74
2023/01/13 11:54:15;;;;;;;3.72;1.00;;;7.50;99.90;;;;;;5005649;28;20101;-76
2023/01/13 11:57:05;;;;;;;2.05;0.50;;;7.30;99.90;;;;;;4991730;28;20103;-78
2023/01/13 11:59:52;;;;;;;1.20;0.90;;;7.10;99.90;;;;;;5006707;28;20163;-77
2023/01/13 12:02:36;;;;;;;2.72;1.38;;;7.00;99.90;;;;;;5008863;28;20040;-77
2023/01/13 12:05:09;;;;;;;3.58;1.50;;;7.00;99.90;;;;;;4999073;28;20034;-77
2023/01/13 12:08:09;;;;;;;1.55;0.65;;;6.90;99.90;;;;;;5009446;28;20505;-78
2023/01/13 12:10:41;;;;;;;1.52;0.60;;;6.80;99.90;;;;;;5008272;28;20022;-76
2023/01/13 12:13:28;;;;;;;2.63;0.73;;;6.80;99.90;;;;;;4996165;28;20053;-77
2023/01/13 12:16:23;;;;;;;1.02;0.30;;;6.80;99.90;;;;;;5012102;28;20053;-77
2023/01/13 12:19:12;;;;;;;1.25;0.60;;;6.90;99.90;;;;;;4997737;28;20033;-75
2023/01/13 12:21:59;;;;;;;4.03;0.77;;;6.80;99.90;;;;;;4999403;28;20188;-76
2023/01/13 12:24:28;;;;;;;2.45;0.63;;;6.90;99.90;;;;;;5010517;28;20034;-74
2023/01/13 12:27:03;;;;;;;2.22;0.60;;;6.90;99.90;;;;;;5011155;28;20519;-76
2023/01/13 12:29:37;;;;;;;1.88;0.38;;;7.00;99.90;;;;;;5013872;28;20057;-76
2023/01/13 12:32:06;;;;;;;3.83;0.63;;;7.00;99.90;;;;;;4996378;28;20026;-76
2023/01/13 12:34:41;;;;;;;2.50;0.70;;;7.10;99.90;;;;;;5017129;28;20061;-74
2023/01/13 12:37:12;;;;;;;5.18;0.80;;;7.10;99.90;;;;;;5018900;28;20029;-76
2023/01/13 12:40:08;;;;;;;6.07;1.17;;;7.10;99.90;;;;;;5014740;28;20025;-75
2023/01/13 12:45:49;;;;;;;5.47;0.90;;;7.20;99.90;;;;;;5016432;28;20410;-77
2023/01/13 12:48:58;;;;;;;9.65;1.95;;;7.20;99.90;;;;;;5000540;28;20025;-76
2023/01/13 12:51:36;;;;;;;3.55;0.80;;;7.20;99.90;;;;;;4994173;28;20080;-78
2023/01/13 12:54:24;;;;;;;4.57;0.85;;;7.30;99.90;;;;;;5001568;28;20040;-77
2023/01/13 12:56:51;;;;;;;5.20;1.10;;;7.30;99.90;;;;;;5014332;28;20026;-77
2023/01/13 12:59:20;;;;;;;3.85;0.82;;;7.20;99.90;;;;;;5015374;28;20026;-77
2023/01/13 13:02:26;;;;;;;9.85;2.65;;;7.20;99.90;;;;;;4993306;28;20444;-75
2023/01/13 13:04:55;;;;;;;15.15;3.42;;;7.30;99.90;;;;;;4939324;29;20051;-78
2023/01/13 13:07:29;;;;;;;58.92;22.67;;;7.30;99.90;;;;;;4941440;29;20455;-77
2023/01/13 13:10:16;;;;;;;23.25;9.52;;;7.40;99.90;;;;;;4982008;28;20049;-77
2023/01/13 13:15:32;;;;;;;;;;;7.60;99.90;;;;;;5015477;28;20040;-76
2023/01/13 13:17:58;;;;;;;5.22;1.20;;;7.60;99.90;;;;;;5009166;28;20047;-78
2023/01/13 13:20:55;;;;;;;3.20;1.00;;;7.80;99.90;;;;;;5006704;28;20562;-76
2023/01/13 13:23:35;;;;;;;4.57;1.02;;;7.90;99.90;;;;;;5007461;28;20072;-76
2023/01/13 13:26:16;;;;;;;7.57;1.05;;;7.90;99.90;;;;;;4998079;28;20088;-76
2023/01/13 13:29:07;;;;;;;5.68;1.13;;;7.90;99.90;;;;;;5014419;28;20084;-76
2023/01/13 13:32:00;;;;;;;5.50;0.95;;;7.90;99.90;;;;;;4982099;28;20117;-77
2023/01/13 13:35:02;;;;;;;4.28;0.80;;;7.90;99.90;;;;;;5011152;28;20483;-76
2023/01/13 13:46:46;;;;;;;5.28;1.55;;;7.90;99.90;;;;;;5009377;28;20226;-77
2023/01/13 13:49:14;;;;;;;3.75;1.25;;;7.90;99.90;;;;;;4998287;28;20080;-76
2023/01/13 13:52:05;;;;;;;4.72;1.65;;;7.90;99.90;;;;;;4999201;28;20157;-78
2023/01/13 13:54:31;;;;;;;7.70;3.25;;;7.90;99.90;;;;;;4997966;28;20510;-77
2023/01/13 13:56:57;;;;;;;4.57;1.98;;;8.00;99.90;;;;;;5014627;28;20048;-77
2023/01/13 13:59:26;;;;;;;8.68;1.90;;;8.00;99.90;;;;;;5011217;28;20040;-77
2023/01/13 14:01:59;;;;;;;4.03;1.30;;;8.10;99.90;;;;;;4997821;28;20041;-79
2023/01/13 14:04:28;;;;;;;8.00;1.48;;;8.20;99.90;;;;;;4999829;28;20057;-78
2023/01/13 14:06:59;;;;;;;6.20;2.25;;;8.20;99.90;;;;;;5003547;28;20033;-78
2023/01/13 14:09:27;;;;;;;8.25;2.20;;;8.30;99.90;;;;;;5019995;28;20068;-78
2023/01/13 14:12:07;;;;;;;5.00;1.10;;;8.40;99.90;;;;;;5016781;28;20037;-77
2023/01/13 14:14:33;;;;;;;4.50;1.38;;;8.40;99.90;;;;;;5011216;28;20045;-77
2023/01/13 14:16:59;;;;;;;4.53;2.00;;;8.40;99.90;;;;;;5014397;28;20025;-77